Time;durP1;ratioP1;P1;durP2;ratioP2;P2;SDS_P1;SDS_P2;PMS_P1;PMS_P2;Temp;Humidity;BMP_temperature;BMP_pressure;BME280_temperature;BME280_humidity;BME280_pressure;Samples;Min_cycle;Max_cycle;Signal;HPM_P1;HPM_P2
2023/01/10 02:38:15;;;;;;;1999.90;999.90;;;;;;;;;;5832639;23;20244;-72
2023/01/10 02:41:03;;;;;;;1999.90;999.90;;;;;;;;;;4988523;28;20556;-70
2023/01/10 02:43:51;;;;;;;1999.90;999.90;;;;;;;;;;4994404;28;20271;-70
2023/01/10 02:46:37;;;;;;;1999.90;999.90;;;;;;;;;;4976797;28;20894;-69
2023/01/10 02:49:22;;;;;;;1999.90;999.90;;;;;;;;;;4973851;28;20235;-70
2023/01/10 02:52:07;;;;;;;1999.90;999.90;;;;;;;;;;4973156;28;20220;-70
2023/01/10 02:54:57;;;;;;;1999.90;999.90;;;;;;;;;;4972346;28;20210;-71
2023/01/10 02:57:49;;;;;;;1999.90;999.90;;;;;;;;;;4974193;28;20242;-68
2023/01/10 03:00:40;;;;;;;1999.90;999.90;;;;;;;;;;4974121;28;20272;-71
2023/01/10 03:03:32;;;;;;;1999.90;999.90;;;;;;;;;;4974288;28;20663;-70
2023/01/10 03:06:20;;;;;;;1999.90;999.90;;;;;;;;;;4970026;28;20333;-71
2023/01/10 03:09:10;;;;;;;1999.90;999.90;;;;;;;;;;4974465;28;20727;-71
2023/01/10 03:11:59;;;;;;;1999.90;999.90;;;;;;;;;;4975137;28;20229;-69
2023/01/10 03:14:45;;;;;;;1999.90;999.90;;;;;;;;;;4974538;28;20204;-70
2023/01/10 03:17:31;;;;;;;1999.90;999.90;;;;;;;;;;4974385;28;20205;-72
2023/01/10 03:20:17;;;;;;;1999.90;999.90;;;;;;;;;;4975197;28;20213;-70
2023/01/10 03:23:05;;;;;;;1999.90;999.90;;;;;;;;;;4975176;28;20204;-70
2023/01/10 03:25:50;;;;;;;1999.90;999.90;;;;;;;;;;4974093;28;20222;-69
2023/01/10 03:28:41;;;;;;;1999.90;999.90;;;;;;;;;;4956317;28;20312;-67
2023/01/10 03:31:28;;;;;;;1999.90;999.90;;;;;;;;;;4969691;28;20365;-72
2023/01/10 03:34:14;;;;;;;1999.90;999.90;;;;;;;;;;4955526;29;20286;-70
2023/01/10 03:37:02;;;;;;;1999.90;999.90;;;;;;;;;;4955503;29;20691;-71
2023/01/10 03:39:51;;;;;;;1999.90;999.90;;;;;;;;;;4958468;28;20355;-71
2023/01/10 03:45:43;;;;;;;1999.90;999.90;;;;;;;;;;4971149;28;20670;-72
2023/01/10 03:48:31;;;;;;;1999.90;999.90;;;;;;;;;;4973466;28;20283;-72
2023/01/10 03:51:18;;;;;;;1999.90;999.90;;;;;;;;;;4974279;28;20217;-71
2023/01/10 03:54:03;;;;;;;1999.90;999.90;;;;;;;;;;4972055;28;20607;-69
2023/01/10 03:56:49;;;;;;;1999.90;999.90;;;;;;;;;;4974719;28;20259;-72
2023/01/10 03:59:34;;;;;;;1999.90;999.90;;;;;;;;;;4973775;28;20762;-72
2023/01/10 04:02:20;;;;;;;1999.90;999.90;;;;;;;;;;4972826;28;20415;-73
2023/01/10 04:05:06;;;;;;;1999.90;999.90;;;;;;;;;;4974029;28;20626;-71
2023/01/10 04:07:51;;;;;;;1999.90;999.90;;;;;;;;;;4973247;28;20258;-68
2023/01/10 04:10:36;;;;;;;1999.90;999.90;;;;;;;;;;4973765;28;20310;-70
2023/01/10 04:13:21;;;;;;;1999.90;999.90;;;;;;;;;;4960598;28;20232;-71
2023/01/10 04:16:07;;;;;;;1999.90;999.90;;;;;;;;;;4970955;28;20337;-70
2023/01/10 04:18:53;;;;;;;1999.90;999.90;;;;;;;;;;4973116;28;20236;-72
2023/01/10 04:21:38;;;;;;;1999.90;999.90;;;;;;;;;;4970442;28;20569;-72
2023/01/10 04:24:23;;;;;;;1999.90;999.90;;;;;;;;;;4973049;28;20783;-73
2023/01/10 04:27:07;;;;;;;1999.90;999.90;;;;;;;;;;4967934;28;20498;-72
2023/01/10 04:29:53;;;;;;;1999.90;999.90;;;;;;;;;;4972873;28;20214;-72
2023/01/10 04:32:38;;;;;;;1999.90;999.90;;;;;;;;;;4972495;28;20280;-71
2023/01/10 04:35:24;;;;;;;1999.90;999.90;;;;;;;;;;4954233;29;20705;-68
2023/01/10 04:38:10;;;;;;;1999.90;999.90;;;;;;;;;;4954504;28;20599;-68
2023/01/10 04:40:55;;;;;;;1999.90;999.90;;;;;;;;;;4954562;29;20209;-72
2023/01/10 04:43:40;;;;;;;1999.90;999.90;;;;;;;;;;4954595;29;20210;-70
2023/01/10 04:46:25;;;;;;;1999.90;999.90;;;;;;;;;;4954735;29;20297;-71
2023/01/10 04:49:10;;;;;;;1999.90;999.90;;;;;;;;;;4954496;29;20224;-72
2023/01/10 04:51:57;;;;;;;1999.90;999.90;;;;;;;;;;4954421;29;20240;-69
2023/01/10 04:54:42;;;;;;;1999.90;999.90;;;;;;;;;;4953955;29;20251;-68
2023/01/10 04:57:27;;;;;;;1999.90;999.90;;;;;;;;;;4954298;29;20487;-69
2023/01/10 05:00:12;;;;;;;1999.90;999.90;;;;;;;;;;4953984;29;20207;-69
2023/01/10 05:02:58;;;;;;;1999.90;999.90;;;;;;;;;;4954272;29;20729;-68
2023/01/10 05:05:43;;;;;;;1999.90;999.90;;;;;;;;;;4953849;29;20697;-70
2023/01/10 05:08:29;;;;;;;1999.90;999.90;;;;;;;;;;4960322;28;20254;-69
2023/01/10 05:11:14;;;;;;;1999.90;999.90;;;;;;;;;;4973306;28;20588;-69
2023/01/10 05:13:59;;;;;;;1999.90;999.90;;;;;;;;;;4973254;28;20205;-69
2023/01/10 05:16:44;;;;;;;1999.90;999.90;;;;;;;;;;4973371;28;20234;-69
2023/01/10 05:19:30;;;;;;;1999.90;999.90;;;;;;;;;;4973274;28;20237;-69
2023/01/10 05:22:15;;;;;;;1999.90;999.90;;;;;;;;;;4973304;28;20206;-71
2023/01/10 05:25:01;;;;;;;1999.90;999.90;;;;;;;;;;4973164;28;20224;-72
2023/01/10 05:27:46;;;;;;;1999.90;999.90;;;;;;;;;;4958664;28;20357;-71
2023/01/10 05:30:31;;;;;;;1999.90;999.90;;;;;;;;;;4955030;28;20257;-71
2023/01/10 05:33:16;;;;;;;1999.90;999.90;;;;;;;;;;4954139;28;20233;-71
2023/01/10 05:36:01;;;;;;;1999.90;999.90;;;;;;;;;;4955083;28;20199;-72
2023/01/10 05:38:46;;;;;;;1999.90;999.90;;;;;;;;;;4976627;28;20237;-71
2023/01/10 05:41:32;;;;;;;1999.90;999.90;;;;;;;;;;4977109;28;20282;-71
2023/01/10 05:44:17;;;;;;;1999.90;999.90;;;;;;;;;;4975663;28;20410;-71
2023/01/10 05:47:02;;;;;;;1999.90;999.90;;;;;;;;;;4965352;28;20235;-73
2023/01/10 05:49:47;;;;;;;1999.90;999.90;;;;;;;;;;4957618;28;20233;-72
2023/01/10 05:52:32;;;;;;;1999.90;999.90;;;;;;;;;;4957756;28;20217;-72
2023/01/10 05:55:17;;;;;;;1999.90;999.90;;;;;;;;;;4965682;28;20232;-71
2023/01/10 05:58:03;;;;;;;1999.90;999.90;;;;;;;;;;4976796;28;20228;-71
2023/01/10 06:00:48;;;;;;;1999.90;999.90;;;;;;;;;;4970662;28;20250;-71
2023/01/10 06:03:34;;;;;;;1999.90;999.90;;;;;;;;;;4957459;29;20206;-71
2023/01/10 06:06:18;;;;;;;1999.90;999.90;;;;;;;;;;4958315;28;20916;-71
2023/01/10 06:09:03;;;;;;;1999.90;999.90;;;;;;;;;;4957188;29;20313;-71
2023/01/10 06:11:48;;;;;;;1999.90;999.90;;;;;;;;;;4957223;28;20675;-71
2023/01/10 06:14:34;;;;;;;1999.90;999.90;;;;;;;;;;4956812;29;20772;-71
2023/01/10 06:17:19;;;;;;;1999.90;999.90;;;;;;;;;;4957338;28;20222;-71
2023/01/10 06:20:05;;;;;;;1999.90;999.90;;;;;;;;;;4957983;28;20294;-71
2023/01/10 06:22:50;;;;;;;1999.90;999.90;;;;;;;;;;4956962;29;20211;-71
2023/01/10 06:25:38;;;;;;;1999.90;999.90;;;;;;;;;;4963372;28;20292;-71
2023/01/10 06:28:24;;;;;;;1999.90;999.90;;;;;;;;;;4975934;28;20656;-71
2023/01/10 06:31:10;;;;;;;1999.90;999.90;;;;;;;;;;4964328;28;20200;-71
2023/01/10 06:33:55;;;;;;;1999.90;999.90;;;;;;;;;;4956502;29;20278;-71
2023/01/10 06:36:40;;;;;;;1999.90;999.90;;;;;;;;;;4956508;28;20282;-72
2023/01/10 06:39:24;;;;;;;1999.90;999.90;;;;;;;;;;4956470;28;20252;-71
2023/01/10 06:42:09;;;;;;;1999.90;999.90;;;;;;;;;;4956410;29;20677;-71
2023/01/10 06:44:54;;;;;;;1999.90;999.90;;;;;;;;;;4960332;28;20768;-69
2023/01/10 06:47:41;;;;;;;1999.90;999.90;;;;;;;;;;4955919;29;20209;-70
2023/01/10 06:50:26;;;;;;;1999.90;999.90;;;;;;;;;;4970854;28;20306;-71
2023/01/10 06:53:10;;;;;;;1999.90;999.90;;;;;;;;;;4975541;28;20587;-71
2023/01/10 06:55:56;;;;;;;1999.90;999.90;;;;;;;;;;4975084;28;20221;-71
2023/01/10 06:58:41;;;;;;;1999.90;999.90;;;;;;;;;;4975628;28;20731;-72
2023/01/10 07:01:26;;;;;;;1999.90;999.90;;;;;;;;;;4969315;28;20222;-72
2023/01/10 07:04:13;;;;;;;1999.90;999.90;;;;;;;;;;4956132;29;20209;-71
2023/01/10 07:06:58;;;;;;;1999.90;999.90;;;;;;;;;;4955889;29;20208;-72
2023/01/10 07:09:43;;;;;;;1999.90;999.90;;;;;;;;;;4956060;29;20606;-71
2023/01/10 07:12:28;;;;;;;1999.90;999.90;;;;;;;;;;4955982;29;20226;-72
2023/01/10 07:15:13;;;;;;;1999.90;999.90;;;;;;;;;;4955815;29;20214;-71
2023/01/10 07:17:58;;;;;;;1999.90;999.90;;;;;;;;;;4955907;29;20225;-71
2023/01/10 07:20:44;;;;;;;1999.90;999.90;;;;;;;;;;4955957;29;20208;-71
2023/01/10 07:23:30;;;;;;;1999.90;999.90;;;;;;;;;;4955863;29;20270;-71
2023/01/10 07:26:16;;;;;;;1999.90;999.90;;;;;;;;;;4955568;29;20205;-71
2023/01/10 07:29:01;;;;;;;1999.90;999.90;;;;;;;;;;4955765;29;20245;-71
2023/01/10 07:31:46;;;;;;;1999.90;999.90;;;;;;;;;;4965738;28;20214;-71
2023/01/10 07:34:31;;;;;;;1999.90;999.90;;;;;;;;;;4974688;28;20208;-72
2023/01/10 07:37:18;;;;;;;1999.90;999.90;;;;;;;;;;4974917;28;20299;-70
2023/01/10 07:40:03;;;;;;;1999.90;999.90;;;;;;;;;;4974959;28;20584;-71
2023/01/10 07:42:48;;;;;;;1999.90;999.90;;;;;;;;;;4974833;28;20226;-71
2023/01/10 07:45:33;;;;;;;1999.90;999.90;;;;;;;;;;4972382;28;20319;-72
2023/01/10 07:48:18;;;;;;;1999.90;999.90;;;;;;;;;;4972421;28;20429;-72
2023/01/10 07:51:04;;;;;;;1999.90;999.90;;;;;;;;;;4961496;28;20285;-72
2023/01/10 07:53:50;;;;;;;1999.90;999.90;;;;;;;;;;4972532;28;20242;-71
2023/01/10 07:56:35;;;;;;;1999.90;999.90;;;;;;;;;;4972895;28;20255;-72
2023/01/10 07:59:20;;;;;;;1999.90;999.90;;;;;;;;;;4965526;28;20305;-72
2023/01/10 08:02:05;;;;;;;1999.90;999.90;;;;;;;;;;4957574;28;20344;-71
2023/01/10 08:04:50;;;;;;;1999.90;999.90;;;;;;;;;;4954728;29;20306;-71
2023/01/10 08:07:35;;;;;;;1999.90;999.90;;;;;;;;;;4970276;28;20699;-72
2023/01/10 08:10:22;;;;;;;1999.90;999.90;;;;;;;;;;4974049;28;20206;-72
2023/01/10 08:13:07;;;;;;;1999.90;999.90;;;;;;;;;;4974056;28;20229;-72
2023/01/10 08:15:52;;;;;;;1999.90;999.90;;;;;;;;;;4970219;28;20296;-71
2023/01/10 08:18:41;;;;;;;1999.90;999.90;;;;;;;;;;4972857;28;20774;-72
2023/01/10 08:21:26;;;;;;;1999.90;999.90;;;;;;;;;;4955530;28;20218;-72
2023/01/10 08:24:11;;;;;;;1999.90;999.90;;;;;;;;;;4963204;28;20213;-71
2023/01/10 08:26:59;;;;;;;1999.90;999.90;;;;;;;;;;4954487;29;20209;-73
2023/01/10 08:29:43;;;;;;;1999.90;999.90;;;;;;;;;;4954683;28;20294;-72
2023/01/10 08:43:00;;;;;;;1999.90;999.90;;;;;;;;;;5150331;27;20604;-71
2023/01/10 08:45:45;;;;;;;1999.90;999.90;;;;;;;;;;5152064;27;20191;-71
2023/01/10 08:48:30;;;;;;;1999.90;999.90;;;;;;;;;;5129604;28;20358;-72
2023/01/10 08:51:15;;;;;;;1999.90;999.90;;;;;;;;;;5151814;27;20354;-72
2023/01/10 08:54:00;;;;;;;1999.90;999.90;;;;;;;;;;5153707;27;20242;-71
2023/01/10 08:56:45;;;;;;;1999.90;999.90;;;;;;;;;;5159730;27;20200;-72
2023/01/10 08:59:31;;;;;;;1999.90;999.90;;;;;;;;;;5154726;27;20324;-72
2023/01/10 09:02:16;;;;;;;1999.90;999.90;;;;;;;;;;5129731;28;20628;-71
2023/01/10 09:05:01;;;;;;;1999.90;999.90;;;;;;;;;;5149912;27;20262;-71
2023/01/10 09:07:47;;;;;;;1999.90;999.90;;;;;;;;;;5171047;27;20228;-72
2023/01/10 09:10:31;;;;;;;1999.90;999.90;;;;;;;;;;5171017;27;20591;-72
2023/01/10 09:13:16;;;;;;;1999.90;999.90;;;;;;;;;;5171066;27;20213;-71
2023/01/10 09:16:03;;;;;;;1999.90;999.90;;;;;;;;;;5170424;27;20211;-72
2023/01/10 09:18:48;;;;;;;1999.90;999.90;;;;;;;;;;5149659;27;20346;-72
2023/01/10 09:21:33;;;;;;;1999.90;999.90;;;;;;;;;;5150082;27;20723;-71
2023/01/10 09:24:18;;;;;;;1999.90;999.90;;;;;;;;;;5146602;27;20314;-73
2023/01/10 09:27:03;;;;;;;1999.90;999.90;;;;;;;;;;5170852;27;20280;-71
2023/01/10 09:29:48;;;;;;;1999.90;999.90;;;;;;;;;;5157869;27;20281;-71
2023/01/10 09:32:34;;;;;;;1999.90;999.90;;;;;;;;;;5149519;27;20228;-71
2023/01/10 09:35:19;;;;;;;1999.90;999.90;;;;;;;;;;5149209;27;20253;-71
2023/01/10 09:38:05;;;;;;;1999.90;999.90;;;;;;;;;;5149679;27;20305;-71
2023/01/10 09:40:55;;;;;;;1999.90;999.90;;;;;;;;;;5148929;27;20311;-72
2023/01/10 09:43:47;;;;;;;1999.90;999.90;;;;;;;;;;5142127;27;20202;-73
2023/01/10 09:46:37;;;;;;;1999.90;999.90;;;;;;;;;;5140060;27;20680;-73
2023/01/10 09:49:26;;;;;;;1999.90;999.90;;;;;;;;;;5135334;27;20316;-72
2023/01/10 09:52:18;;;;;;;1999.90;999.90;;;;;;;;;;5136806;27;20233;-72
2023/01/10 09:55:07;;;;;;;1999.90;999.90;;;;;;;;;;5155918;27;20256;-72
2023/01/10 09:57:54;;;;;;;1999.90;999.90;;;;;;;;;;5147042;27;20593;-73
2023/01/10 10:00:42;;;;;;;1999.90;999.90;;;;;;;;;;5143044;27;20205;-72
2023/01/10 10:03:29;;;;;;;1999.90;999.90;;;;;;;;;;5145671;27;20246;-73
2023/01/10 10:06:16;;;;;;;1999.90;999.90;;;;;;;;;;5135116;27;20557;-73
2023/01/10 10:09:01;;;;;;;1999.90;999.90;;;;;;;;;;5114727;28;20228;-71
2023/01/10 10:11:51;;;;;;;1999.90;999.90;;;;;;;;;;5126883;27;20220;-72
2023/01/10 10:14:43;;;;;;;1999.90;999.90;;;;;;;;;;5114268;28;20209;-72
2023/01/10 10:17:32;;;;;;;1999.90;999.90;;;;;;;;;;5115489;27;20207;-73
2023/01/10 10:20:26;;;;;;;1999.90;999.90;;;;;;;;;;5116886;27;20210;-73
2023/01/10 10:23:19;;;;;;;1999.90;999.90;;;;;;;;;;5125862;27;20205;-72
2023/01/10 10:26:06;;;;;;;1999.90;999.90;;;;;;;;;;5126018;27;20216;-71
2023/01/10 10:29:01;;;;;;;1999.90;999.90;;;;;;;;;;5114230;27;20228;-72
2023/01/10 10:32:04;;;;;;;1999.90;999.90;;;;;;;;;;5114333;27;20233;-71
2023/01/10 10:34:50;;;;;;;1999.90;999.90;;;;;;;;;;5126399;27;20196;-73
2023/01/10 10:37:37;;;;;;;1999.90;999.90;;;;;;;;;;5122075;27;20699;-71
2023/01/10 10:40:25;;;;;;;1999.90;999.90;;;;;;;;;;5122052;27;20306;-70
2023/01/10 10:43:17;;;;;;;1999.90;999.90;;;;;;;;;;5134047;27;20204;-70
2023/01/10 10:46:05;;;;;;;1999.90;999.90;;;;;;;;;;5132465;27;20562;-70
2023/01/10 10:48:52;;;;;;;1999.90;999.90;;;;;;;;;;5113786;28;20223;-72
2023/01/10 10:51:40;;;;;;;1999.90;999.90;;;;;;;;;;5130461;27;20283;-70
2023/01/10 10:54:25;;;;;;;1999.90;999.90;;;;;;;;;;5130844;27;20220;-70
2023/01/10 10:57:11;;;;;;;1999.90;999.90;;;;;;;;;;5119929;27;20295;-72
2023/01/10 10:59:57;;;;;;;1999.90;999.90;;;;;;;;;;5127759;27;20231;-71
2023/01/10 11:02:45;;;;;;;1999.90;999.90;;;;;;;;;;5126289;27;20403;-71
2023/01/10 11:05:32;;;;;;;1999.90;999.90;;;;;;;;;;5139307;27;20207;-71
2023/01/10 11:08:19;;;;;;;1999.90;999.90;;;;;;;;;;5122836;27;20224;-70
2023/01/10 11:11:06;;;;;;;1999.90;999.90;;;;;;;;;;5126030;27;20214;-72
2023/01/10 11:13:54;;;;;;;1999.90;999.90;;;;;;;;;;5126615;27;20213;-72
2023/01/10 11:16:40;;;;;;;1999.90;999.90;;;;;;;;;;5123090;27;20302;-71
2023/01/10 11:19:25;;;;;;;1999.90;999.90;;;;;;;;;;5129512;27;20618;-73
2023/01/10 11:22:14;;;;;;;1999.90;999.90;;;;;;;;;;5125581;27;20202;-71
2023/01/10 11:25:00;;;;;;;1999.90;999.90;;;;;;;;;;5131988;27;20205;-71
2023/01/10 11:27:47;;;;;;;1999.90;999.90;;;;;;;;;;5122870;27;20229;-72
2023/01/10 11:30:35;;;;;;;1999.90;999.90;;;;;;;;;;5123226;27;20286;-71
2023/01/10 11:33:21;;;;;;;1999.90;999.90;;;;;;;;;;5126610;27;20599;-71
2023/01/10 11:36:08;;;;;;;1999.90;999.90;;;;;;;;;;5125167;27;20231;-70
2023/01/10 11:38:59;;;;;;;1999.90;999.90;;;;;;;;;;5127762;27;20731;-70
2023/01/10 11:41:44;;;;;;;1999.90;999.90;;;;;;;;;;5121769;27;20212;-70
2023/01/10 11:44:29;;;;;;;1999.90;999.90;;;;;;;;;;5126710;27;20330;-70
2023/01/10 11:47:19;;;;;;;1999.90;999.90;;;;;;;;;;5129289;27;20196;-71
2023/01/10 11:50:08;;;;;;;1999.90;999.90;;;;;;;;;;5134602;27;20350;-72
2023/01/10 11:52:53;;;;;;;1999.90;999.90;;;;;;;;;;5140402;27;20275;-71
2023/01/10 11:55:38;;;;;;;1999.90;999.90;;;;;;;;;;5136799;27;20721;-70
2023/01/10 11:58:23;;;;;;;1999.90;999.90;;;;;;;;;;5133012;27;20221;-70
2023/01/10 12:01:23;;;;;;;1999.90;999.90;;;;;;;;;;5133449;27;20214;-70
2023/01/10 12:04:15;;;;;;;1999.90;999.90;;;;;;;;;;5133337;27;20194;-69
2023/01/10 12:07:03;;;;;;;1999.90;999.90;;;;;;;;;;5126757;27;20669;-70
2023/01/10 12:09:54;;;;;;;1999.90;999.90;;;;;;;;;;5112660;28;20219;-69
2023/01/10 12:12:51;;;;;;;1999.90;999.90;;;;;;;;;;5112404;28;20349;-70
2023/01/10 12:15:36;;;;;;;1999.90;999.90;;;;;;;;;;5112336;28;20206;-70
2023/01/10 12:18:22;;;;;;;1999.90;999.90;;;;;;;;;;5112572;28;20226;-70
2023/01/10 12:21:09;;;;;;;1999.90;999.90;;;;;;;;;;5112259;28;20203;-70
2023/01/10 12:23:57;;;;;;;1999.90;999.90;;;;;;;;;;5112531;28;20203;-70
2023/01/10 12:26:42;;;;;;;1999.90;999.90;;;;;;;;;;5122156;27;20598;-70
2023/01/10 12:29:29;;;;;;;1999.90;999.90;;;;;;;;;;5112281;28;20230;-70
2023/01/10 12:32:17;;;;;;;1999.90;999.90;;;;;;;;;;5112311;28;20595;-69
2023/01/10 12:35:04;;;;;;;1999.90;999.90;;;;;;;;;;5129226;27;20214;-69
2023/01/10 12:37:53;;;;;;;1999.90;999.90;;;;;;;;;;5129398;27;20464;-69
2023/01/10 12:40:42;;;;;;;1999.90;999.90;;;;;;;;;;5130181;27;20213;-70
2023/01/10 12:46:39;;;;;;;1999.90;999.90;;;;;;;;;;5129067;27;20205;-71
2023/01/10 12:49:25;;;;;;;1999.90;999.90;;;;;;;;;;5128002;28;20230;-70
2023/01/10 12:52:12;;;;;;;1999.90;999.90;;;;;;;;;;5128108;28;20330;-69
2023/01/10 12:54:59;;;;;;;1999.90;999.90;;;;;;;;;;5128322;27;20220;-71
2023/01/10 12:57:47;;;;;;;1999.90;999.90;;;;;;;;;;5128360;28;20352;-70
2023/01/10 13:00:35;;;;;;;1999.90;999.90;;;;;;;;;;5130336;28;20361;-71
2023/01/10 13:03:21;;;;;;;1999.90;999.90;;;;;;;;;;5130623;28;20199;-71
2023/01/10 13:06:06;;;;;;;1999.90;999.90;;;;;;;;;;5127533;27;20279;-69
2023/01/10 13:08:51;;;;;;;1999.90;999.90;;;;;;;;;;5130527;27;20810;-69
2023/01/10 13:11:42;;;;;;;1999.90;999.90;;;;;;;;;;5130485;28;20203;-69
2023/01/10 13:14:28;;;;;;;1999.90;999.90;;;;;;;;;;5128339;28;20432;-69
2023/01/10 13:17:22;;;;;;;1999.90;999.90;;;;;;;;;;5129994;27;20578;-70
2023/01/10 13:20:28;;;;;;;1999.90;999.90;;;;;;;;;;5133988;27;20320;-70
2023/01/10 13:23:22;;;;;;;1999.90;999.90;;;;;;;;;;5132142;27;20687;-71
2023/01/10 13:26:09;;;;;;;1999.90;999.90;;;;;;;;;;5130143;27;20207;-70
2023/01/10 13:28:57;;;;;;;1999.90;999.90;;;;;;;;;;5133923;27;20347;-70
2023/01/10 13:31:42;;;;;;;1999.90;999.90;;;;;;;;;;5133554;27;20267;-70
2023/01/10 13:34:31;;;;;;;1999.90;999.90;;;;;;;;;;5135811;27;20203;-70
2023/01/10 13:37:21;;;;;;;1999.90;999.90;;;;;;;;;;5135189;27;20209;-69
2023/01/10 13:40:07;;;;;;;1999.90;999.90;;;;;;;;;;5130174;27;20198;-70
2023/01/10 13:43:19;;;;;;;1999.90;999.90;;;;;;;;;;5128685;27;20254;-70
2023/01/10 13:46:28;;;;;;;1999.90;999.90;;;;;;;;;;5123108;27;20202;-69
2023/01/10 13:49:46;;;;;;;1999.90;999.90;;;;;;;;;;5120764;27;20425;-71
2023/01/10 13:52:33;;;;;;;1999.90;999.90;;;;;;;;;;5115086;27;20230;-71
2023/01/10 13:55:27;;;;;;;1999.90;999.90;;;;;;;;;;5132873;27;20217;-72
2023/01/10 14:04:30;;;;;;;1999.90;999.90;;;;;;;;;;5119468;27;20225;-72
2023/01/10 14:07:19;;;;;;;1999.90;999.90;;;;;;;;;;5119174;27;20691;-73
2023/01/10 14:10:07;;;;;;;1999.90;999.90;;;;;;;;;;5135280;27;20201;-71
2023/01/10 14:12:55;;;;;;;1999.90;999.90;;;;;;;;;;5136592;27;20424;-73
2023/01/10 14:15:41;;;;;;;1999.90;999.90;;;;;;;;;;5141479;27;20575;-72
2023/01/10 14:18:30;;;;;;;1999.90;999.90;;;;;;;;;;5147975;27;20223;-72
2023/01/10 14:21:21;;;;;;;1999.90;999.90;;;;;;;;;;5134322;27;20242;-70
2023/01/10 14:24:17;;;;;;;1999.90;999.90;;;;;;;;;;5114286;28;20216;-72
2023/01/10 14:27:04;;;;;;;1999.90;999.90;;;;;;;;;;5114371;28;20343;-72
2023/01/10 14:29:51;;;;;;;1999.90;999.90;;;;;;;;;;5114259;28;20301;-72
2023/01/10 14:32:38;;;;;;;1999.90;999.90;;;;;;;;;;5113982;28;20608;-72
2023/01/10 14:35:24;;;;;;;1999.90;999.90;;;;;;;;;;5128414;27;20208;-72
2023/01/10 14:38:17;;;;;;;1999.90;999.90;;;;;;;;;;5155439;27;20267;-71
2023/01/10 14:41:03;;;;;;;1999.90;999.90;;;;;;;;;;5154521;27;20609;-72
2023/01/10 14:43:53;;;;;;;1999.90;999.90;;;;;;;;;;5153507;27;20205;-72
2023/01/10 14:46:43;;;;;;;1999.90;999.90;;;;;;;;;;5141270;27;20198;-72
2023/01/10 14:49:29;;;;;;;1999.90;999.90;;;;;;;;;;5134496;27;20221;-72
2023/01/10 14:52:18;;;;;;;1999.90;999.90;;;;;;;;;;5120973;27;20300;-72
2023/01/10 14:55:09;;;;;;;1999.90;999.90;;;;;;;;;;5122927;27;20712;-72
2023/01/10 14:57:55;;;;;;;1999.90;999.90;;;;;;;;;;5113671;27;20215;-72
2023/01/10 15:00:44;;;;;;;1999.90;999.90;;;;;;;;;;5113654;28;20566;-72
2023/01/10 15:03:29;;;;;;;1999.90;999.90;;;;;;;;;;5133507;27;20337;-72
2023/01/10 15:06:14;;;;;;;1999.90;999.90;;;;;;;;;;5133994;27;20343;-72
2023/01/10 15:08:59;;;;;;;1999.90;999.90;;;;;;;;;;5132556;27;20222;-72
2023/01/10 15:11:45;;;;;;;1999.90;999.90;;;;;;;;;;5133684;27;20206;-72
2023/01/10 15:14:31;;;;;;;1999.90;999.90;;;;;;;;;;5142490;27;20209;-72
2023/01/10 15:17:19;;;;;;;1999.90;999.90;;;;;;;;;;5153042;27;20214;-72
2023/01/10 15:20:05;;;;;;;1999.90;999.90;;;;;;;;;;5154495;27;20200;-72
2023/01/10 15:22:54;;;;;;;1999.90;999.90;;;;;;;;;;5139234;27;20204;-71
2023/01/10 15:25:40;;;;;;;1999.90;999.90;;;;;;;;;;5123159;27;20756;-71
2023/01/10 15:28:28;;;;;;;1999.90;999.90;;;;;;;;;;5139827;27;20594;-72
2023/01/10 15:31:15;;;;;;;1999.90;999.90;;;;;;;;;;5121424;27;20294;-72
2023/01/10 15:34:06;;;;;;;1999.90;999.90;;;;;;;;;;5148977;27;20315;-71
2023/01/10 15:36:52;;;;;;;1999.90;999.90;;;;;;;;;;5119269;27;20197;-71
2023/01/10 15:39:38;;;;;;;1999.90;999.90;;;;;;;;;;5154205;27;20229;-71
2023/01/10 15:42:23;;;;;;;1999.90;999.90;;;;;;;;;;5144322;27;20293;-71
2023/01/10 15:45:22;;;;;;;1999.90;999.90;;;;;;;;;;5133304;27;20241;-71
2023/01/10 15:48:24;;;;;;;1999.90;999.90;;;;;;;;;;5112867;28;20364;-71
2023/01/10 15:51:14;;;;;;;1999.90;999.90;;;;;;;;;;5118500;27;20401;-71
2023/01/10 15:54:03;;;;;;;1999.90;999.90;;;;;;;;;;5132721;27;20234;-71
2023/01/10 15:56:49;;;;;;;1999.90;999.90;;;;;;;;;;5139174;27;20318;-71
2023/01/10 15:59:36;;;;;;;1999.90;999.90;;;;;;;;;;5132131;27;20588;-71
2023/01/10 16:02:23;;;;;;;1999.90;999.90;;;;;;;;;;5130569;27;20204;-71
2023/01/10 16:05:11;;;;;;;1999.90;999.90;;;;;;;;;;5133934;27;20199;-72
2023/01/10 16:07:57;;;;;;;1999.90;999.90;;;;;;;;;;5140329;27;20219;-71
2023/01/10 16:10:42;;;;;;;1999.90;999.90;;;;;;;;;;5153999;27;20274;-71
2023/01/10 16:13:26;;;;;;;1999.90;999.90;;;;;;;;;;5153344;27;20230;-72
2023/01/10 16:16:15;;;;;;;1999.90;999.90;;;;;;;;;;5153769;27;20242;-70
2023/01/10 16:19:00;;;;;;;1999.90;999.90;;;;;;;;;;5112389;28;20348;-70
2023/01/10 16:21:47;;;;;;;1999.90;999.90;;;;;;;;;;5122976;27;20259;-70
2023/01/10 16:24:34;;;;;;;1999.90;999.90;;;;;;;;;;5115034;28;20283;-70
2023/01/10 16:27:19;;;;;;;1999.90;999.90;;;;;;;;;;5130711;27;20223;-71
2023/01/10 16:30:04;;;;;;;1999.90;999.90;;;;;;;;;;5131770;27;20220;-71
2023/01/10 16:32:50;;;;;;;1999.90;999.90;;;;;;;;;;5117616;28;20218;-72
2023/01/10 16:35:35;;;;;;;1999.90;999.90;;;;;;;;;;5121990;27;20289;-72
2023/01/10 16:38:20;;;;;;;1999.90;999.90;;;;;;;;;;5112195;28;20228;-71
2023/01/10 16:44:08;;;;;;;1999.90;999.90;;;;;;;;;;5124920;27;20578;-71
2023/01/10 16:46:53;;;;;;;1999.90;999.90;;;;;;;;;;5117453;28;20748;-71
2023/01/10 16:49:40;;;;;;;1999.90;999.90;;;;;;;;;;5138166;27;20261;-72
2023/01/10 16:52:25;;;;;;;1999.90;999.90;;;;;;;;;;5146783;27;20207;-72
2023/01/10 16:55:14;;;;;;;1999.90;999.90;;;;;;;;;;5133858;27;20249;-72
2023/01/10 16:58:01;;;;;;;1999.90;999.90;;;;;;;;;;5132530;27;20508;-72
2023/01/10 17:00:48;;;;;;;1999.90;999.90;;;;;;;;;;5122622;27;20315;-71
2023/01/10 17:03:36;;;;;;;1999.90;999.90;;;;;;;;;;5141064;27;20216;-72
2023/01/10 17:06:21;;;;;;;1999.90;999.90;;;;;;;;;;5124201;27;20197;-72
2023/01/10 17:09:06;;;;;;;1999.90;999.90;;;;;;;;;;5149935;27;20225;-72
2023/01/10 17:11:55;;;;;;;1999.90;999.90;;;;;;;;;;5133549;27;20246;-72
2023/01/10 17:14:41;;;;;;;1999.90;999.90;;;;;;;;;;5116718;27;20221;-71
2023/01/10 17:17:26;;;;;;;1999.90;999.90;;;;;;;;;;5119848;27;20247;-72
2023/01/10 17:20:13;;;;;;;1999.90;999.90;;;;;;;;;;5117239;27;20266;-73
2023/01/10 17:22:58;;;;;;;1999.90;999.90;;;;;;;;;;5133389;27;20196;-72
2023/01/10 17:25:43;;;;;;;1999.90;999.90;;;;;;;;;;5129143;27;20352;-71
2023/01/10 17:28:28;;;;;;;1999.90;999.90;;;;;;;;;;5142849;27;20229;-71
2023/01/10 17:31:15;;;;;;;1999.90;999.90;;;;;;;;;;5156204;27;20211;-72
2023/01/10 17:34:00;;;;;;;1999.90;999.90;;;;;;;;;;5133033;27;20721;-71
2023/01/10 17:36:45;;;;;;;1999.90;999.90;;;;;;;;;;5117981;27;20299;-72
2023/01/10 17:39:30;;;;;;;1999.90;999.90;;;;;;;;;;5123930;27;20228;-72
2023/01/10 17:42:15;;;;;;;1999.90;999.90;;;;;;;;;;5130641;27;20332;-71
2023/01/10 17:45:00;;;;;;;1999.90;999.90;;;;;;;;;;5135875;27;20205;-72
2023/01/10 17:47:46;;;;;;;1999.90;999.90;;;;;;;;;;5135971;27;20216;-72
2023/01/10 17:50:31;;;;;;;1999.90;999.90;;;;;;;;;;5136067;27;20210;-72
2023/01/10 17:53:17;;;;;;;1999.90;999.90;;;;;;;;;;5135960;27;20312;-72
2023/01/10 17:56:02;;;;;;;1999.90;999.90;;;;;;;;;;5131976;27;20211;-72
2023/01/10 17:58:47;;;;;;;1999.90;999.90;;;;;;;;;;5133352;27;20341;-72
2023/01/10 18:01:32;;;;;;;1999.90;999.90;;;;;;;;;;5133433;27;20285;-72
2023/01/10 18:04:18;;;;;;;1999.90;999.90;;;;;;;;;;5132941;27;20210;-72
2023/01/10 18:07:03;;;;;;;1999.90;999.90;;;;;;;;;;5133153;27;20200;-71
2023/01/10 18:09:48;;;;;;;1999.90;999.90;;;;;;;;;;5131513;27;20362;-71
2023/01/10 18:12:34;;;;;;;1999.90;999.90;;;;;;;;;;5133610;27;20322;-72
2023/01/10 18:15:19;;;;;;;1999.90;999.90;;;;;;;;;;5132965;27;20675;-72
2023/01/10 18:18:04;;;;;;;1999.90;999.90;;;;;;;;;;5130788;27;20229;-71
2023/01/10 18:20:51;;;;;;;1999.90;999.90;;;;;;;;;;5133010;27;20230;-71
2023/01/10 18:23:37;;;;;;;1999.90;999.90;;;;;;;;;;5131031;27;20686;-72
2023/01/10 18:26:22;;;;;;;1999.90;999.90;;;;;;;;;;5133455;27;20205;-72
2023/01/10 18:29:07;;;;;;;1999.90;999.90;;;;;;;;;;5132986;27;20729;-72
2023/01/10 18:31:52;;;;;;;1999.90;999.90;;;;;;;;;;5133274;27;20204;-72
2023/01/10 18:34:37;;;;;;;1999.90;999.90;;;;;;;;;;5130129;27;20944;-71